createdAt,value
2019-04-20T00:02:38.381Z,6.98
2019-04-20T00:05:53.084Z,7.05
2019-04-20T00:09:14.028Z,7.12
2019-04-20T00:12:36.550Z,7.15
2019-04-20T00:15:38.986Z,7.14
2019-04-20T00:18:56.569Z,7.04
2019-04-20T00:22:24.608Z,7.01
2019-04-20T00:26:07.723Z,7.04
2019-04-20T00:29:30.885Z,7.00
2019-04-20T00:32:41.255Z,6.92
2019-04-20T00:35:44.321Z,6.90
2019-04-20T00:39:18.853Z,6.85
2019-04-20T00:42:40.737Z,6.75
2019-04-20T00:45:58.025Z,6.68
2019-04-20T00:49:20.621Z,6.63
2019-04-20T00:52:35.674Z,6.61
2019-04-20T00:55:36.096Z,6.48
2019-04-20T00:59:02.698Z,6.38
2019-04-20T01:02:20.887Z,6.40
2019-04-20T01:05:47.847Z,6.42
2019-04-20T01:09:16.036Z,6.32
2019-04-20T01:12:32.995Z,6.32
2019-04-20T01:15:51.571Z,6.26
2019-04-20T01:19:01.389Z,6.21
2019-04-20T01:22:18.461Z,6.25
2019-04-20T01:25:35.990Z,6.26
2019-04-20T01:28:58.865Z,6.21
2019-04-20T01:32:14.210Z,6.24
2019-04-20T01:35:38.196Z,6.22
2019-04-20T01:38:49.865Z,6.16
2019-04-20T01:41:49.581Z,6.14
2019-04-20T01:45:11.254Z,6.03
2019-04-20T01:48:26.760Z,5.95
2019-04-20T01:51:49.146Z,6.02
2019-04-20T01:55:24.441Z,5.90
2019-04-20T01:59:04.683Z,5.88
2019-04-20T02:02:28.320Z,5.81
2019-04-20T02:05:53.092Z,5.82
2019-04-20T02:09:04.663Z,5.74
2019-04-20T02:12:21.664Z,5.75
2019-04-20T02:15:55.622Z,5.69
2019-04-20T02:19:21.901Z,5.77
2019-04-20T02:22:37.107Z,5.69
2019-04-20T02:25:37.591Z,5.66
2019-04-20T02:29:18.987Z,5.63
2019-04-20T02:36:27.512Z,5.55
2019-04-20T02:39:45.938Z,5.59
2019-04-20T02:52:42.544Z,5.41
2019-04-20T02:55:53.434Z,5.41
2019-04-20T02:59:29.631Z,5.32
2019-04-20T03:02:06.390Z,5.34
2019-04-20T03:05:16.473Z,5.39
2019-04-20T03:08:42.294Z,5.40
2019-04-20T03:15:09.701Z,5.40
2019-04-20T03:18:25.547Z,5.42
2019-04-20T03:21:45.368Z,5.51
2019-04-20T03:25:06.878Z,5.55
2019-04-20T03:28:19.474Z,5.61
2019-04-20T03:31:54.152Z,5.59
2019-04-20T03:38:04.643Z,5.46
2019-04-20T03:41:16.213Z,5.47
2019-04-20T03:44:20.975Z,5.42
2019-04-20T03:47:43.764Z,5.41
2019-04-20T03:51:07.055Z,5.31
2019-04-20T03:54:51.333Z,5.26
2019-04-20T03:58:19.692Z,5.18
2019-04-20T04:02:07.506Z,5.18
2019-04-20T04:05:19.322Z,5.14
2019-04-20T04:08:25.406Z,5.17
2019-04-20T04:11:50.273Z,5.08
2019-04-20T04:14:49.371Z,4.97
2019-04-20T04:18:11.037Z,5.05
2019-04-20T04:21:35.533Z,5.13
2019-04-20T04:24:53.164Z,5.11
2019-04-20T04:28:06.986Z,5.07
2019-04-20T04:31:27.562Z,5.08
2019-04-20T04:34:41.614Z,5.01
2019-04-20T04:37:58.846Z,5.02
2019-04-20T04:41:18.274Z,5.01
2019-04-20T04:44:19.261Z,4.95
2019-04-20T04:47:24.025Z,4.88
2019-04-20T04:50:47.499Z,4.84
2019-04-20T04:54:01.176Z,4.92
2019-04-20T04:57:09.480Z,5.01
2019-04-20T05:00:28.141Z,5.03
2019-04-20T05:04:02.879Z,5.06
2019-04-20T05:07:09.365Z,5.01
2019-04-20T05:10:11.905Z,4.99
2019-04-20T05:16:55.296Z,5.15
2019-04-20T05:20:08.559Z,5.08
2019-04-20T05:23:35.124Z,5.14
2019-04-20T05:27:08.090Z,5.25
2019-04-20T05:30:03.661Z,5.26
2019-04-20T05:33:28.161Z,5.32
2019-04-20T05:36:49.350Z,5.45
2019-04-20T05:40:10.719Z,5.55
2019-04-20T05:43:30.610Z,5.61
2019-04-20T05:46:48.193Z,5.77
2019-04-20T05:49:58.739Z,5.85
2019-04-20T05:53:19.242Z,5.90
2019-04-20T05:56:35.794Z,6.04
2019-04-20T05:59:56.039Z,6.22
2019-04-20T06:03:06.028Z,6.34
2019-04-20T06:06:22.035Z,6.49
2019-04-20T06:09:40.008Z,6.57
2019-04-20T06:12:54.165Z,6.72
2019-04-20T06:16:08.905Z,6.84
2019-04-20T06:19:32.006Z,7.04
2019-04-20T06:22:48.556Z,7.29
2019-04-20T06:26:24.589Z,7.49
2019-04-20T06:29:16.453Z,7.65
2019-04-20T06:33:21.930Z,7.82
2019-04-20T06:36:33.845Z,8.08
2019-04-20T06:39:58.958Z,8.34
2019-04-20T06:43:05.198Z,8.57
2019-04-20T06:46:22.744Z,8.81
2019-04-20T06:49:33.328Z,9.06
2019-04-20T06:53:18.719Z,9.35
2019-04-20T06:56:31.128Z,9.60
2019-04-20T06:59:47.699Z,9.89
2019-04-20T07:02:58.993Z,10.19
2019-04-20T07:06:34.109Z,10.50
2019-04-20T07:09:49.073Z,10.92
2019-04-20T07:12:45.464Z,11.34
2019-04-20T07:16:21.381Z,11.70
2019-04-20T07:19:40.196Z,12.11
2019-04-20T07:23:11.118Z,12.53
2019-04-20T07:26:25.044Z,12.83
2019-04-20T07:29:51.938Z,13.09
2019-04-20T07:32:52.160Z,13.37
2019-04-20T07:36:05.802Z,13.67
2019-04-20T07:39:26.606Z,13.88
2019-04-20T07:42:40.750Z,14.14
2019-04-20T07:45:51.725Z,14.42
2019-04-20T07:49:07.342Z,14.64
2019-04-20T07:52:01.895Z,14.89
2019-04-20T07:58:41.405Z,15.36
2019-04-20T08:02:29.078Z,15.65
2019-04-20T08:05:36.371Z,15.93
2019-04-20T08:08:53.098Z,16.05
2019-04-20T08:12:28.831Z,16.28
2019-04-20T08:15:43.381Z,16.52
2019-04-20T08:18:55.748Z,16.81
2019-04-20T08:22:08.329Z,17.07
2019-04-20T08:25:14.128Z,17.37
2019-04-20T08:28:42.366Z,17.60
2019-04-20T08:32:17.868Z,17.72
2019-04-20T08:35:39.285Z,17.84
2019-04-20T08:39:16.585Z,18.13
2019-04-20T08:42:06.273Z,18.30
2019-04-20T08:45:24.168Z,18.41
2019-04-20T08:48:40.626Z,18.52
2019-04-20T08:52:01.722Z,18.67
2019-04-20T08:55:05.483Z,18.78
2019-04-20T08:58:04.491Z,18.94
2019-04-20T09:01:21.564Z,19.02
2019-04-20T09:04:43.250Z,19.37
2019-04-20T09:08:04.370Z,19.61
2019-04-20T09:11:23.250Z,19.73
2019-04-20T09:14:21.723Z,19.88
2019-04-20T09:18:01.932Z,20.02
2019-04-20T09:21:24.896Z,20.28
2019-04-20T09:24:51.474Z,20.69
2019-04-20T09:28:11.669Z,21.12
2019-04-20T09:31:39.241Z,21.37
2019-04-20T09:34:59.966Z,21.53
2019-04-20T09:38:12.200Z,21.76
2019-04-20T09:41:45.263Z,21.69
2019-04-20T09:44:31.499Z,21.77
2019-04-20T09:47:49.388Z,21.85
2019-04-20T09:51:20.067Z,21.84
2019-04-20T09:54:40.474Z,22.09
2019-04-20T09:57:50.295Z,22.39
2019-04-20T10:01:03.225Z,22.54
2019-04-20T10:04:03.441Z,22.90
2019-04-20T10:07:19.995Z,23.11
2019-04-20T10:10:38.909Z,23.29
2019-04-20T10:13:48.273Z,23.39
2019-04-20T10:17:02.236Z,23.55
2019-04-20T10:20:24.402Z,23.67
2019-04-20T10:23:32.477Z,23.75
2019-04-20T10:26:46.234Z,23.52
2019-04-20T10:30:02.920Z,23.87
2019-04-20T10:33:15.545Z,24.03
2019-04-20T10:37:04.172Z,24.33
2019-04-20T10:40:35.838Z,24.27
2019-04-20T10:43:33.455Z,23.97
2019-04-20T10:46:47.099Z,24.19
2019-04-20T10:50:00.904Z,24.24
2019-04-20T10:53:14.823Z,24.28
2019-04-20T10:56:29.516Z,24.77
2019-04-20T10:59:43.724Z,25.09
2019-04-20T11:02:57.540Z,25.23
2019-04-20T11:06:11.135Z,25.29
2019-04-20T11:09:24.879Z,25.57
2019-04-20T11:12:40.083Z,26.14
2019-04-20T11:15:54.718Z,26.51
2019-04-20T11:19:09.425Z,26.98
2019-04-20T11:22:24.142Z,27.03
2019-04-20T11:25:38.464Z,27.03
2019-04-20T11:28:52.489Z,26.93
2019-04-20T11:32:07.287Z,26.77
2019-04-20T11:35:28.058Z,27.35
2019-04-20T11:38:36.480Z,27.45
2019-04-20T11:41:51.686Z,27.42
2019-04-20T11:45:06.721Z,27.42
2019-04-20T11:48:21.310Z,27.78
2019-04-20T11:51:35.234Z,27.95
2019-04-20T11:54:48.831Z,27.14
2019-04-20T11:58:03.708Z,26.83
2019-04-20T12:01:51.886Z,27.07
2019-04-20T12:05:17.365Z,27.20
2019-04-20T12:08:22.844Z,27.88
2019-04-20T12:11:47.540Z,28.06
2019-04-20T12:16:31.997Z,28.60
2019-04-20T12:19:45.989Z,29.28
2019-04-20T12:23:00.226Z,29.26
2019-04-20T12:26:14.828Z,28.85
2019-04-20T12:29:29.951Z,28.54
2019-04-20T12:32:48.948Z,28.13
2019-04-20T12:36:00.391Z,28.10
2019-04-20T12:39:15.091Z,27.54
2019-04-20T12:42:29.028Z,27.76
2019-04-20T12:45:44.038Z,28.11
2019-04-20T12:48:57.759Z,28.80
2019-04-20T12:52:12.449Z,28.97
2019-04-20T12:55:26.414Z,29.07
2019-04-20T12:58:43.303Z,28.70
2019-04-20T13:01:55.906Z,28.65
2019-04-20T13:05:11.169Z,28.89
2019-04-20T13:08:30.341Z,29.02
2019-04-20T13:12:09.896Z,29.04
2019-04-20T13:15:28.858Z,28.61
2019-04-20T13:18:57.732Z,28.29
2019-04-20T13:22:12.823Z,28.87
2019-04-20T13:25:26.539Z,29.84
2019-04-20T13:28:41.255Z,30.25
2019-04-20T13:31:56.647Z,30.34
2019-04-20T13:35:12.084Z,31.00
2019-04-20T13:38:25.911Z,31.13
2019-04-20T13:41:40.351Z,30.57
2019-04-20T13:44:54.920Z,29.70
2019-04-20T13:48:08.958Z,29.16
2019-04-20T13:51:23.013Z,29.49
2019-04-20T13:54:37.898Z,29.20
2019-04-20T13:57:59.756Z,29.08
2019-04-20T14:01:34.504Z,28.96
2019-04-20T14:04:52.797Z,29.22
2019-04-20T14:08:07.763Z,29.09
2019-04-20T14:11:21.463Z,28.77
2019-04-20T14:14:35.480Z,28.50
2019-04-20T14:17:49.498Z,29.29
2019-04-20T14:21:03.238Z,28.98
2019-04-20T14:24:17.157Z,28.72
2019-04-20T14:27:30.907Z,28.52
2019-04-20T14:30:45.948Z,28.47
2019-04-20T14:33:59.809Z,28.51
2019-04-20T14:37:14.949Z,28.54
2019-04-20T14:40:30.339Z,28.84
2019-04-20T14:43:44.747Z,28.82
2019-04-20T14:46:58.270Z,28.99
2019-04-20T14:50:13.646Z,29.34
2019-04-20T14:53:27.454Z,29.79
2019-04-20T14:56:41.555Z,30.08
2019-04-20T14:59:59.210Z,30.25
2019-04-20T15:03:28.601Z,29.72
2019-04-20T15:06:42.614Z,29.84
2019-04-20T15:09:57.124Z,29.95
2019-04-20T15:13:11.346Z,29.71
2019-04-20T15:16:26.586Z,29.50
2019-04-20T15:20:05.658Z,29.46
2019-04-20T15:23:23.512Z,29.18
2019-04-20T15:26:38.495Z,28.91
2019-04-20T15:29:52.375Z,28.94
2019-04-20T15:33:07.253Z,29.35
2019-04-20T15:36:22.210Z,29.62
2019-04-20T15:39:37.016Z,29.16
2019-04-20T15:42:59.013Z,28.60
2019-04-20T15:46:07.586Z,28.42
2019-04-20T15:49:22.118Z,28.09
2019-04-20T15:52:40.998Z,27.89
2019-04-20T15:55:52.388Z,27.46
2019-04-20T15:59:06.447Z,27.06
2019-04-20T16:02:35.709Z,27.19
2019-04-20T16:05:53.454Z,27.19
2019-04-20T16:09:08.343Z,27.16
2019-04-20T16:12:22.936Z,27.14
2019-04-20T16:15:37.883Z,27.54
2019-04-20T16:18:52.788Z,27.54
2019-04-20T16:22:07.886Z,27.66
2019-04-20T16:25:35.235Z,27.85
2019-04-20T16:28:50.147Z,27.85
2019-04-20T16:32:04.734Z,27.90
2019-04-20T16:35:20.290Z,27.28
2019-04-20T16:38:35.094Z,27.28
2019-04-20T16:41:50.460Z,27.07
2019-04-20T16:45:07.348Z,27.02
2019-04-20T16:48:22.099Z,27.11
2019-04-20T16:51:36.652Z,27.20
2019-04-20T16:54:50.650Z,27.20
2019-04-20T16:58:04.269Z,26.88
2019-04-20T17:01:19.291Z,26.76
2019-04-20T17:04:33.847Z,26.98
2019-04-20T17:07:49.091Z,26.91
2019-04-20T17:11:03.498Z,26.91
2019-04-20T17:14:17.477Z,26.40
2019-04-20T17:17:33.625Z,26.41
2019-04-20T17:20:48.380Z,26.19
2019-04-20T17:24:02.097Z,25.90
2019-04-20T17:27:48.982Z,25.58
2019-04-20T17:31:27.082Z,25.31
2019-04-20T17:34:58.372Z,25.03
2019-04-20T17:37:56.581Z,24.58
2019-04-20T17:41:30.840Z,24.02
2019-04-20T17:44:41.375Z,23.55
2019-04-20T17:47:58.483Z,23.09
2019-04-20T17:51:18.940Z,22.29
2019-04-20T17:54:35.891Z,21.55
2019-04-20T17:57:49.644Z,21.19
2019-04-20T18:01:51.206Z,20.79
2019-04-20T18:05:33.938Z,20.61
2019-04-20T18:08:43.923Z,20.27
2019-04-20T18:11:47.208Z,20.11
2019-04-20T18:15:18.261Z,19.86
2019-04-20T18:18:45.077Z,19.66
2019-04-20T18:21:53.818Z,19.47
2019-04-20T18:25:30.078Z,19.13
2019-04-20T18:28:47.131Z,18.84
2019-04-20T18:31:47.494Z,18.56
2019-04-20T18:35:08.486Z,18.28
2019-04-20T18:38:24.074Z,18.02
2019-04-20T18:41:46.678Z,17.62
2019-04-20T18:45:12.474Z,17.33
2019-04-20T18:48:33.420Z,16.89
2019-04-20T18:51:26.049Z,16.63
2019-04-20T18:54:44.290Z,16.45
2019-04-20T18:57:57.213Z,16.29
2019-04-20T19:01:11.028Z,16.11
2019-04-20T19:04:25.826Z,15.92
2019-04-20T19:07:47.717Z,15.56
2019-04-20T19:11:03.260Z,15.28
2019-04-20T19:14:35.635Z,15.00
2019-04-20T19:18:06.290Z,14.92
2019-04-20T19:21:11.060Z,14.80
2019-04-20T19:24:29.169Z,14.47
2019-04-20T19:27:48.449Z,14.14
2019-04-20T19:31:10.453Z,13.93
2019-04-20T19:34:26.485Z,13.89
2019-04-20T19:37:34.580Z,13.79
2019-04-20T19:40:51.171Z,13.59
2019-04-20T19:44:09.984Z,13.37
2019-04-20T19:47:34.852Z,13.07
2019-04-20T19:50:57.817Z,13.01
2019-04-20T19:54:09.248Z,12.96
2019-04-20T19:57:16.375Z,12.93
2019-04-20T20:00:24.985Z,12.76
2019-04-20T20:03:39.570Z,12.54
2019-04-20T20:06:59.808Z,12.49
2019-04-20T20:10:10.896Z,12.37
2019-04-20T20:13:32.096Z,12.07
2019-04-20T20:17:01.474Z,11.92
2019-04-20T20:20:20.238Z,11.88
2019-04-20T20:23:12.070Z,11.72
2019-04-20T20:26:33.493Z,11.54
2019-04-20T20:29:54.582Z,11.33
2019-04-20T20:33:11.614Z,11.26
2019-04-20T20:36:19.675Z,11.22
2019-04-20T20:39:31.723Z,11.21
2019-04-20T20:42:56.301Z,11.11
2019-04-20T20:46:10.562Z,10.97
2019-04-20T20:49:32.768Z,10.80
2019-04-20T20:52:46.900Z,10.67
2019-04-20T20:55:53.317Z,10.58
2019-04-20T20:59:11.481Z,10.63
2019-04-20T21:02:23.673Z,10.61
2019-04-20T21:05:33.560Z,10.61
2019-04-20T21:08:52.369Z,10.48
2019-04-20T21:12:08.555Z,10.37
2019-04-20T21:16:46.841Z,10.38
2019-04-20T21:20:03.738Z,10.13
2019-04-20T21:23:22.383Z,10.11
2019-04-20T21:26:30.427Z,9.99
2019-04-20T21:29:44.444Z,9.92
2019-04-20T21:32:59.994Z,9.81
2019-04-20T21:36:13.563Z,9.74
2019-04-20T21:39:35.042Z,9.61
2019-04-20T21:42:48.175Z,9.56
2019-04-20T21:46:02.857Z,9.53
2019-04-20T21:49:26.296Z,9.47
2019-04-20T21:52:36.117Z,9.46
2019-04-20T21:55:43.836Z,9.41
2019-04-20T21:59:02.480Z,9.32
2019-04-20T22:02:19.453Z,9.29
2019-04-20T22:05:30.332Z,9.35
2019-04-20T22:08:51.126Z,9.36
2019-04-20T22:12:00.237Z,9.36
2019-04-20T22:15:22.455Z,9.33
2019-04-20T22:18:31.878Z,9.30
2019-04-20T22:21:58.417Z,9.23
2019-04-20T22:25:16.145Z,9.15
2019-04-20T22:28:18.093Z,9.12
2019-04-20T22:31:31.959Z,9.01
2019-04-20T22:34:54.052Z,8.96
2019-04-20T22:38:20.955Z,8.93
2019-04-20T22:41:38.727Z,8.90
2019-04-20T22:44:58.738Z,8.95
2019-04-20T22:48:10.997Z,8.94
2019-04-20T22:51:40.226Z,8.92
2019-04-20T22:54:55.135Z,8.88
2019-04-20T22:58:04.602Z,8.87
2019-04-20T23:01:23.259Z,8.83
2019-04-20T23:04:26.656Z,8.71
2019-04-20T23:07:41.013Z,8.68
2019-04-20T23:10:55.638Z,8.63
2019-04-20T23:14:10.694Z,8.49
2019-04-20T23:17:33.533Z,8.51
2019-04-20T23:20:41.141Z,8.51
2019-04-20T23:24:02.678Z,8.40
2019-04-20T23:27:17.030Z,8.40
2019-04-20T23:30:33.497Z,8.40
2019-04-20T23:33:41.916Z,8.33
2019-04-20T23:36:56.755Z,8.29
2019-04-20T23:40:13.207Z,8.20
2019-04-20T23:43:33.332Z,8.22
2019-04-20T23:47:03.161Z,8.17
2019-04-20T23:50:30.526Z,8.10
2019-04-20T23:53:41.305Z,7.92
2019-04-20T23:56:43.765Z,7.86
2019-04-20T23:59:58.166Z,7.89
